createdAt,value
2022-10-17T00:01:49.336Z,0.60
2022-10-17T00:04:16.639Z,0.40
2022-10-17T00:06:43.839Z,0.40
2022-10-17T00:09:11.270Z,0.75
2022-10-17T00:11:39.988Z,0.95
2022-10-17T00:14:07.474Z,0.50
2022-10-17T00:16:37.112Z,0.50
2022-10-17T00:19:05.268Z,0.63
2022-10-17T00:21:32.502Z,0.95
2022-10-17T00:24:00.211Z,0.75
2022-10-17T00:26:29.623Z,0.65
2022-10-17T00:28:57.573Z,0.60
2022-10-17T00:31:25.329Z,0.50
2022-10-17T00:33:53.098Z,0.70
2022-10-17T00:36:24.453Z,0.70
2022-10-17T00:38:56.080Z,0.57
2022-10-17T00:41:30.720Z,0.40
2022-10-17T00:43:57.919Z,0.47
2022-10-17T00:46:26.328Z,0.40
2022-10-17T00:48:54.573Z,0.47
2022-10-17T00:51:24.516Z,0.30
2022-10-17T00:53:51.977Z,0.40
2022-10-17T00:56:20.276Z,0.40
2022-10-17T00:58:47.881Z,0.30
2022-10-17T01:01:15.181Z,0.40
2022-10-17T01:03:42.635Z,0.30
2022-10-17T01:06:09.810Z,0.38
2022-10-17T01:08:37.176Z,0.47
2022-10-17T01:11:04.406Z,0.40
2022-10-17T01:13:38.341Z,0.30
2022-10-17T01:16:10.047Z,0.20
2022-10-17T01:18:49.293Z,0.40
2022-10-17T01:21:24.401Z,0.35
2022-10-17T01:24:04.326Z,0.50
2022-10-17T01:26:51.781Z,0.30
2022-10-17T01:29:24.880Z,0.47
2022-10-17T01:31:52.082Z,0.32
2022-10-17T01:34:21.983Z,0.30
2022-10-17T01:36:55.389Z,0.35
2022-10-17T01:39:34.449Z,0.30
2022-10-17T01:42:25.988Z,0.30
2022-10-17T01:44:59.619Z,0.38
2022-10-17T01:47:29.386Z,0.30
2022-10-17T01:49:58.993Z,0.40
2022-10-17T01:52:28.443Z,0.20
2022-10-17T01:54:55.722Z,0.20
2022-10-17T01:57:34.962Z,0.30
2022-10-17T02:00:03.678Z,0.30
2022-10-17T02:02:31.543Z,0.30
2022-10-17T02:04:59.021Z,0.22
2022-10-17T02:07:26.762Z,0.22
2022-10-17T02:09:54.385Z,0.32
2022-10-17T02:12:59.972Z,0.30
2022-10-17T02:15:35.813Z,0.20
2022-10-17T02:18:21.509Z,0.20
2022-10-17T02:21:12.008Z,0.22
2022-10-17T02:23:49.786Z,0.22
2022-10-17T02:26:27.970Z,0.30
2022-10-17T02:28:58.095Z,0.20
2022-10-17T02:31:27.627Z,0.22
2022-10-17T02:33:57.436Z,0.30
2022-10-17T02:36:26.980Z,0.20
2022-10-17T02:38:55.528Z,0.20
2022-10-17T02:41:24.497Z,0.20
2022-10-17T02:43:51.952Z,0.28
2022-10-17T02:46:23.143Z,0.30
2022-10-17T02:49:16.686Z,0.30
2022-10-17T02:51:53.111Z,0.30
2022-10-17T02:54:25.333Z,0.30
2022-10-17T02:56:55.705Z,0.30
2022-10-17T02:59:24.805Z,0.40
2022-10-17T03:01:52.578Z,0.25
2022-10-17T03:04:20.135Z,0.30
2022-10-17T03:06:48.710Z,0.30
2022-10-17T03:09:16.786Z,0.30
2022-10-17T03:11:44.029Z,0.30
2022-10-17T03:14:11.245Z,0.32
2022-10-17T03:16:38.478Z,0.32
2022-10-17T03:19:05.767Z,0.30
2022-10-17T03:21:33.090Z,0.30
2022-10-17T03:24:00.319Z,0.25
2022-10-17T03:26:29.479Z,0.40
2022-10-17T03:28:56.732Z,0.30
2022-10-17T03:31:24.001Z,0.20
2022-10-17T03:33:51.332Z,0.30
2022-10-17T03:36:19.294Z,0.30
2022-10-17T03:38:46.749Z,0.30
2022-10-17T03:41:14.143Z,0.20
2022-10-17T03:43:41.456Z,0.30
2022-10-17T03:46:08.827Z,0.30
2022-10-17T03:48:36.111Z,0.20
2022-10-17T03:51:04.794Z,0.30
2022-10-17T03:53:32.380Z,0.28
2022-10-17T03:56:09.964Z,0.32
2022-10-17T03:58:37.201Z,0.30
2022-10-17T04:01:05.374Z,0.40
2022-10-17T04:03:32.941Z,0.30
2022-10-17T04:06:01.209Z,0.30
2022-10-17T04:08:28.469Z,0.40
2022-10-17T04:10:59.630Z,0.35
2022-10-17T04:13:27.044Z,0.35
2022-10-17T04:15:55.301Z,0.22
2022-10-17T04:18:22.808Z,0.40
2022-10-17T04:20:50.113Z,0.32
2022-10-17T04:23:17.359Z,0.40
2022-10-17T04:25:44.584Z,0.50
2022-10-17T04:28:11.811Z,0.57
2022-10-17T04:30:42.284Z,0.43
2022-10-17T04:33:12.367Z,0.50
2022-10-17T04:35:39.589Z,0.30
2022-10-17T04:38:06.886Z,0.35
2022-10-17T04:40:34.088Z,0.30
2022-10-17T04:43:01.538Z,0.40
2022-10-17T04:45:28.707Z,0.32
2022-10-17T04:47:55.973Z,0.30
2022-10-17T04:50:23.225Z,0.40
2022-10-17T04:52:50.431Z,0.30
2022-10-17T04:55:17.680Z,0.30
2022-10-17T04:57:44.933Z,0.40
2022-10-17T05:00:12.335Z,0.40
2022-10-17T05:02:39.577Z,0.40
2022-10-17T05:05:06.981Z,0.38
2022-10-17T05:07:34.218Z,0.30
2022-10-17T05:10:01.586Z,0.40
2022-10-17T05:12:29.103Z,0.40
2022-10-17T05:14:56.523Z,0.25
2022-10-17T05:17:23.737Z,0.28
2022-10-17T05:19:50.899Z,0.40
2022-10-17T05:22:18.094Z,0.40
2022-10-17T05:24:45.285Z,0.50
2022-10-17T05:27:12.520Z,0.30
2022-10-17T05:29:40.034Z,0.35
2022-10-17T05:32:07.313Z,0.30
2022-10-17T05:34:34.939Z,0.30
2022-10-17T05:37:02.140Z,0.38
2022-10-17T05:39:29.321Z,0.28
2022-10-17T05:41:56.536Z,0.38
2022-10-17T05:44:23.731Z,0.22
2022-10-17T05:46:51.156Z,0.30
2022-10-17T05:49:32.185Z,0.30
2022-10-17T05:52:05.895Z,0.30
2022-10-17T05:54:33.199Z,0.20
2022-10-17T05:57:00.398Z,0.30
2022-10-17T05:59:27.744Z,0.20
2022-10-17T06:01:55.322Z,0.20
2022-10-17T06:04:22.725Z,0.40
2022-10-17T06:06:50.391Z,0.30
2022-10-17T06:09:17.940Z,0.22
2022-10-17T06:11:45.150Z,0.30
2022-10-17T06:14:12.350Z,0.22
2022-10-17T06:16:39.539Z,0.30
2022-10-17T06:19:06.798Z,0.30
2022-10-17T06:21:36.541Z,0.20
2022-10-17T06:24:03.775Z,0.40
2022-10-17T06:26:30.997Z,0.20
2022-10-17T06:28:58.851Z,0.30
2022-10-17T06:31:26.130Z,0.20
2022-10-17T06:33:53.380Z,0.20
2022-10-17T06:36:20.639Z,0.30
2022-10-17T06:38:47.881Z,0.20
2022-10-17T06:41:15.997Z,0.40
2022-10-17T06:43:46.389Z,0.30
2022-10-17T06:46:14.475Z,0.30
2022-10-17T06:48:41.734Z,1.23
2022-10-17T06:51:12.133Z,0.22
2022-10-17T06:53:40.383Z,0.45
2022-10-17T06:56:08.374Z,0.40
2022-10-17T06:58:37.104Z,0.30
2022-10-17T07:03:41.370Z,0.47
2022-10-17T07:06:10.748Z,0.30
2022-10-17T07:08:38.269Z,0.30
2022-10-17T07:11:15.957Z,0.30
2022-10-17T07:13:43.605Z,0.40
2022-10-17T07:16:11.185Z,0.63
2022-10-17T07:18:38.787Z,0.40
2022-10-17T07:21:06.285Z,0.30
2022-10-17T07:23:36.574Z,0.20
2022-10-17T07:26:07.385Z,0.68
2022-10-17T07:28:41.725Z,0.28
2022-10-17T07:31:10.787Z,0.30
2022-10-17T07:33:38.217Z,0.40
2022-10-17T07:36:05.973Z,0.50
2022-10-17T07:38:33.328Z,0.30
2022-10-17T07:41:04.872Z,0.50
2022-10-17T07:43:32.424Z,0.30
2022-10-17T07:46:01.164Z,0.30
2022-10-17T07:48:28.497Z,0.30
2022-10-17T07:50:55.660Z,0.40
2022-10-17T07:53:22.851Z,0.68
2022-10-17T07:55:51.407Z,0.60
2022-10-17T07:58:18.768Z,0.50
2022-10-17T08:00:48.631Z,0.50
2022-10-17T08:03:16.076Z,0.60
2022-10-17T08:05:43.335Z,0.50
2022-10-17T08:08:10.554Z,0.60
2022-10-17T08:10:37.784Z,0.50
2022-10-17T08:13:05.105Z,0.60
2022-10-17T08:15:32.328Z,0.30
2022-10-17T08:18:00.246Z,0.55
2022-10-17T08:20:27.526Z,0.50
2022-10-17T08:22:55.700Z,0.60
2022-10-17T08:25:23.396Z,1.23
2022-10-17T08:27:50.848Z,0.57
2022-10-17T08:30:18.207Z,0.75
2022-10-17T08:32:45.793Z,0.60
2022-10-17T08:35:14.750Z,0.85
2022-10-17T08:37:42.242Z,1.25
2022-10-17T08:40:15.505Z,0.75
2022-10-17T08:43:01.625Z,0.60
2022-10-17T08:45:49.037Z,0.70
2022-10-17T08:48:20.236Z,0.50
2022-10-17T08:50:50.913Z,0.50
2022-10-17T08:53:21.019Z,0.60
2022-10-17T08:55:49.388Z,0.55
2022-10-17T08:58:16.596Z,0.60
2022-10-17T09:00:52.917Z,0.70
2022-10-17T09:03:28.045Z,1.30
2022-10-17T09:06:01.646Z,1.67
2022-10-17T09:08:47.500Z,1.23
2022-10-17T09:11:14.681Z,1.60
2022-10-17T09:13:52.372Z,2.13
2022-10-17T09:16:38.179Z,2.60
2022-10-17T09:19:11.826Z,2.78
2022-10-17T09:21:48.144Z,2.50
2022-10-17T09:24:44.618Z,2.58
2022-10-17T09:27:17.398Z,1.95
2022-10-17T09:29:45.965Z,1.75
2022-10-17T09:32:18.333Z,1.85
2022-10-17T09:34:45.668Z,2.60
2022-10-17T09:37:16.962Z,3.15
2022-10-17T09:39:44.709Z,1.50
2022-10-17T09:42:17.939Z,2.80
2022-10-17T09:44:58.537Z,2.05
2022-10-17T09:47:28.874Z,1.45
2022-10-17T09:49:56.186Z,1.40
2022-10-17T09:52:37.335Z,1.40
2022-10-17T09:55:16.592Z,0.90
2022-10-17T09:57:54.957Z,1.70
2022-10-17T10:00:26.678Z,3.35
2022-10-17T10:03:09.504Z,1.45
2022-10-17T10:05:36.724Z,1.50
2022-10-17T10:08:24.174Z,2.28
2022-10-17T10:10:58.370Z,3.40
2022-10-17T10:13:26.841Z,1.40
2022-10-17T10:15:54.138Z,1.40
2022-10-17T10:18:27.507Z,2.25
2022-10-17T10:21:07.158Z,1.33
2022-10-17T10:23:34.820Z,3.83
2022-10-17T10:26:06.559Z,1.75
2022-10-17T10:28:42.066Z,2.58
2022-10-17T10:31:10.323Z,2.92
2022-10-17T10:33:41.798Z,1.85
2022-10-17T10:36:09.562Z,2.72
2022-10-17T10:38:40.166Z,2.72
2022-10-17T10:41:12.128Z,2.50
2022-10-17T10:43:42.224Z,2.50
2022-10-17T10:46:24.155Z,2.60
2022-10-17T10:48:56.533Z,2.63
2022-10-17T10:51:43.992Z,2.40
2022-10-17T10:54:13.869Z,3.30
2022-10-17T10:56:49.885Z,4.00
2022-10-17T10:59:23.197Z,2.03
2022-10-17T11:02:02.641Z,1.20
2022-10-17T11:04:50.159Z,2.35
2022-10-17T11:07:17.638Z,2.17
2022-10-17T11:10:01.639Z,2.55
2022-10-17T11:12:33.178Z,3.78
2022-10-17T11:15:19.404Z,2.58
2022-10-17T11:18:00.960Z,2.63
2022-10-17T11:20:28.659Z,5.53
2022-10-17T11:23:05.605Z,2.75
2022-10-17T11:25:37.621Z,2.42
2022-10-17T11:28:10.335Z,2.10
2022-10-17T11:30:48.776Z,2.47
2022-10-17T11:33:19.492Z,2.25
2022-10-17T11:35:49.823Z,2.17
2022-10-17T11:38:23.342Z,1.42
2022-10-17T11:40:51.472Z,2.40
2022-10-17T11:43:21.787Z,2.72
2022-10-17T11:45:51.458Z,2.80
2022-10-17T11:48:23.036Z,1.65
2022-10-17T11:53:51.517Z,4.75
2022-10-17T11:56:22.879Z,2.08
2022-10-17T11:58:57.296Z,3.80
2022-10-17T12:01:43.171Z,1.70
2022-10-17T12:04:28.641Z,2.50
2022-10-17T12:07:14.391Z,3.40
2022-10-17T12:09:53.083Z,2.97
2022-10-17T12:12:27.897Z,1.60
2022-10-17T12:14:55.621Z,3.28
2022-10-17T12:17:39.227Z,3.15
2022-10-17T12:20:24.748Z,1.67
2022-10-17T12:22:53.767Z,2.08
2022-10-17T12:25:23.163Z,2.17
2022-10-17T12:28:10.390Z,1.90
2022-10-17T12:30:37.834Z,3.15
2022-10-17T12:33:08.053Z,2.10
2022-10-17T12:35:36.796Z,2.50
2022-10-17T12:38:19.184Z,2.10
2022-10-17T12:40:50.800Z,1.70
2022-10-17T12:43:17.981Z,3.90
2022-10-17T12:45:48.512Z,1.85
2022-10-17T12:48:34.107Z,1.63
2022-10-17T12:51:30.784Z,4.07
2022-10-17T12:53:57.800Z,3.10
2022-10-17T12:56:32.414Z,1.85
2022-10-17T12:59:00.302Z,2.17
2022-10-17T13:01:34.897Z,2.17
2022-10-17T13:04:05.833Z,2.78
2022-10-17T13:06:37.840Z,2.92
2022-10-17T13:09:23.673Z,1.70
2022-10-17T13:11:51.190Z,1.65
2022-10-17T13:14:20.789Z,2.17
2022-10-17T13:16:51.327Z,1.33
2022-10-17T13:19:20.316Z,4.15
2022-10-17T13:21:51.783Z,2.22
2022-10-17T13:24:29.816Z,2.50
2022-10-17T13:26:57.478Z,1.52
2022-10-17T13:29:25.887Z,2.50
2022-10-17T13:31:54.978Z,1.42
2022-10-17T13:34:23.331Z,2.40
2022-10-17T13:36:57.931Z,2.28
2022-10-17T13:39:38.319Z,1.23
2022-10-17T13:42:38.434Z,2.80
2022-10-17T13:45:11.990Z,3.50
2022-10-17T13:47:40.060Z,1.70
2022-10-17T13:50:26.387Z,2.00
2022-10-17T13:53:13.516Z,1.27
2022-10-17T13:56:09.073Z,2.17
2022-10-17T13:58:44.631Z,1.30
2022-10-17T14:01:12.853Z,2.25
2022-10-17T14:03:48.532Z,1.60
2022-10-17T14:06:16.275Z,2.28
2022-10-17T14:08:52.627Z,2.38
2022-10-17T14:11:24.003Z,1.80
2022-10-17T14:13:52.122Z,1.50
2022-10-17T14:16:19.574Z,3.15
2022-10-17T14:18:49.445Z,1.40
2022-10-17T14:21:43.817Z,3.25
2022-10-17T14:24:16.869Z,1.63
2022-10-17T14:27:02.463Z,1.95
2022-10-17T14:29:29.936Z,1.95
2022-10-17T14:32:02.490Z,2.30
2022-10-17T14:34:32.072Z,1.90
2022-10-17T14:37:02.168Z,1.77
2022-10-17T14:39:29.844Z,2.38
2022-10-17T14:41:59.686Z,2.03
2022-10-17T14:44:38.080Z,4.95
2022-10-17T14:47:30.816Z,1.67
2022-10-17T14:50:07.205Z,1.50
2022-10-17T14:52:35.748Z,1.92
2022-10-17T14:55:18.984Z,1.25
2022-10-17T14:57:46.874Z,3.30
2022-10-17T15:00:15.286Z,1.77
2022-10-17T15:02:43.013Z,1.38
2022-10-17T15:05:13.187Z,1.45
2022-10-17T15:07:41.587Z,3.60
2022-10-17T15:10:20.477Z,1.25
2022-10-17T15:12:56.232Z,0.95
2022-10-17T15:15:28.214Z,3.50
2022-10-17T15:17:55.557Z,1.42
2022-10-17T15:20:26.304Z,1.63
2022-10-17T15:22:54.233Z,2.17
2022-10-17T15:25:22.042Z,1.10
2022-10-17T15:27:49.405Z,1.05
2022-10-17T15:30:25.225Z,0.65
2022-10-17T15:32:52.923Z,1.27
2022-10-17T15:35:20.864Z,1.88
2022-10-17T15:37:50.346Z,0.77
2022-10-17T15:40:19.226Z,3.15
2022-10-17T15:42:46.566Z,1.40
2022-10-17T15:45:17.976Z,1.35
2022-10-17T15:47:50.448Z,1.75
2022-10-17T15:50:18.265Z,1.10
2022-10-17T15:52:47.268Z,0.80
2022-10-17T15:55:14.748Z,1.92
2022-10-17T15:57:43.940Z,1.30
2022-10-17T16:00:16.806Z,0.98
2022-10-17T16:02:44.139Z,0.80
2022-10-17T16:05:16.270Z,1.35
2022-10-17T16:07:46.890Z,0.77
2022-10-17T16:10:14.673Z,0.73
2022-10-17T16:12:42.218Z,0.50
2022-10-17T16:15:14.388Z,0.52
2022-10-17T16:17:41.953Z,0.60
2022-10-17T16:20:09.372Z,0.60
2022-10-17T16:22:36.866Z,0.50
2022-10-17T16:25:10.258Z,1.35
2022-10-17T16:27:38.083Z,0.50
2022-10-17T16:30:06.741Z,0.82
2022-10-17T16:32:34.545Z,1.02
2022-10-17T16:35:01.818Z,0.73
2022-10-17T16:37:29.340Z,1.27
2022-10-17T16:39:56.536Z,1.35
2022-10-17T16:42:23.933Z,2.15
2022-10-17T16:44:52.264Z,0.80
2022-10-17T16:47:20.280Z,1.27
2022-10-17T16:49:47.525Z,0.77
2022-10-17T16:52:14.733Z,0.60
2022-10-17T16:54:42.037Z,0.40
2022-10-17T16:57:09.598Z,0.82
2022-10-17T16:59:36.931Z,0.70
2022-10-17T17:02:04.191Z,2.40
2022-10-17T17:04:31.494Z,1.70
2022-10-17T17:06:58.786Z,1.55
2022-10-17T17:09:26.065Z,0.90
2022-10-17T17:11:53.295Z,0.60
2022-10-17T17:14:20.495Z,0.82
2022-10-17T17:16:47.726Z,0.60
2022-10-17T17:19:17.095Z,0.43
2022-10-17T17:21:50.082Z,0.50
2022-10-17T17:24:18.339Z,0.32
2022-10-17T17:26:46.934Z,0.40
2022-10-17T17:29:14.179Z,0.50
2022-10-17T17:31:41.526Z,1.23
2022-10-17T17:34:09.661Z,0.93
2022-10-17T17:36:38.696Z,1.13
2022-10-17T17:39:07.213Z,0.40
2022-10-17T17:41:34.822Z,0.50
2022-10-17T17:44:02.833Z,0.45
2022-10-17T17:46:30.428Z,0.88
2022-10-17T17:48:57.748Z,0.40
2022-10-17T17:51:29.064Z,0.55
2022-10-17T17:53:56.759Z,0.50
2022-10-17T17:56:25.520Z,0.55
2022-10-17T17:58:57.441Z,1.00
2022-10-17T18:01:25.904Z,1.88
2022-10-17T18:03:53.982Z,0.65
2022-10-17T18:06:21.978Z,2.55
2022-10-17T18:08:50.904Z,2.63
2022-10-17T18:11:21.209Z,0.95
2022-10-17T18:13:53.507Z,1.75
2022-10-17T18:16:20.766Z,1.45
2022-10-17T18:18:48.006Z,1.15
2022-10-17T18:21:15.269Z,0.80
2022-10-17T18:23:44.056Z,0.93
2022-10-17T18:26:11.412Z,1.38
2022-10-17T18:31:15.355Z,0.70
2022-10-17T18:33:44.660Z,0.85
2022-10-17T18:36:13.002Z,0.98
2022-10-17T18:38:40.264Z,1.38
2022-10-17T18:41:09.122Z,2.10
2022-10-17T18:43:37.267Z,0.60
2022-10-17T18:46:06.389Z,0.60
2022-10-17T18:48:35.885Z,0.70
2022-10-17T18:51:05.109Z,0.75
2022-10-17T18:53:32.520Z,0.50
2022-10-17T18:56:00.010Z,0.40
2022-10-17T18:58:27.420Z,0.40
2022-10-17T19:00:54.656Z,0.63
2022-10-17T19:03:21.932Z,0.40
2022-10-17T19:05:49.139Z,0.60
2022-10-17T19:08:16.383Z,1.27
2022-10-17T19:10:43.761Z,1.77
2022-10-17T19:13:11.811Z,2.10
2022-10-17T19:15:39.736Z,1.25
2022-10-17T19:18:07.070Z,1.92
2022-10-17T19:20:34.286Z,0.88
2022-10-17T19:23:01.796Z,0.73
2022-10-17T19:25:30.473Z,0.70
2022-10-17T19:27:58.235Z,0.50
2022-10-17T19:30:25.543Z,0.50
2022-10-17T19:32:53.294Z,0.80
2022-10-17T19:35:20.528Z,1.13
2022-10-17T19:37:47.702Z,1.27
2022-10-17T19:40:14.977Z,0.63
2022-10-17T19:42:42.300Z,0.98
2022-10-17T19:45:09.877Z,0.85
2022-10-17T19:47:38.674Z,0.90
2022-10-17T19:50:06.226Z,0.68
2022-10-17T19:52:33.688Z,0.60
2022-10-17T19:55:01.154Z,0.82
2022-10-17T19:57:28.555Z,1.17
2022-10-17T19:59:56.302Z,1.13
2022-10-17T20:02:23.580Z,2.60
2022-10-17T20:05:00.115Z,1.63
2022-10-17T20:07:38.093Z,2.03
2022-10-17T20:10:05.501Z,3.35
2022-10-17T20:12:33.071Z,2.38
2022-10-17T20:15:00.731Z,2.20
2022-10-17T20:17:27.991Z,1.10
2022-10-17T20:19:55.256Z,1.92
2022-10-17T20:22:22.576Z,1.15
2022-10-17T20:24:49.963Z,1.15
2022-10-17T20:27:18.151Z,0.93
2022-10-17T20:29:45.357Z,1.05
2022-10-17T20:32:12.572Z,0.50
2022-10-17T20:34:39.949Z,0.50
2022-10-17T20:37:07.171Z,1.67
2022-10-17T20:39:34.341Z,1.90
2022-10-17T20:42:01.603Z,1.30
2022-10-17T20:44:28.918Z,0.75
2022-10-17T20:47:02.037Z,0.80
2022-10-17T20:49:30.431Z,0.60
2022-10-17T20:51:57.964Z,0.65
2022-10-17T20:54:25.408Z,1.25
2022-10-17T20:56:52.783Z,0.70
2022-10-17T20:59:20.129Z,0.90
2022-10-17T21:01:47.852Z,0.60
2022-10-17T21:04:44.674Z,0.50
2022-10-17T21:07:02.615Z,0.50
2022-10-17T21:09:30.025Z,0.40
2022-10-17T21:11:57.609Z,0.50
2022-10-17T21:14:25.511Z,0.40
2022-10-17T21:16:52.709Z,0.50
2022-10-17T21:19:21.621Z,0.40
2022-10-17T21:21:48.864Z,1.23
2022-10-17T21:24:20.836Z,0.40
2022-10-17T21:26:50.264Z,0.50
2022-10-17T21:29:17.505Z,0.55
2022-10-17T21:31:45.370Z,0.57
2022-10-17T21:34:14.098Z,0.73
2022-10-17T21:36:41.570Z,0.40
2022-10-17T21:39:08.848Z,0.38
2022-10-17T21:41:36.068Z,0.40
2022-10-17T21:44:05.005Z,0.57
2022-10-17T21:46:32.670Z,0.30
2022-10-17T21:49:00.783Z,0.40
2022-10-17T21:51:28.502Z,0.43
2022-10-17T21:53:56.506Z,0.60
2022-10-17T21:56:24.865Z,0.82
2022-10-17T21:58:52.249Z,1.10
2022-10-17T22:01:23.812Z,1.10
2022-10-17T22:03:52.773Z,2.00
2022-10-17T22:09:16.376Z,0.90
2022-10-17T22:11:45.689Z,1.08
2022-10-17T22:14:15.920Z,2.45
2022-10-17T22:16:45.320Z,1.92
2022-10-17T22:19:13.484Z,0.63
2022-10-17T22:21:40.739Z,1.00
2022-10-17T22:24:09.168Z,0.55
2022-10-17T22:26:37.134Z,0.45
2022-10-17T22:29:05.314Z,1.05
2022-10-17T22:31:32.675Z,0.50
2022-10-17T22:33:59.884Z,0.80
2022-10-17T22:36:27.649Z,0.82
2022-10-17T22:38:58.887Z,0.73
2022-10-17T22:41:26.103Z,1.52
2022-10-17T22:43:53.472Z,0.90
2022-10-17T22:46:20.709Z,0.43
2022-10-17T22:48:47.916Z,1.98
2022-10-17T22:51:15.164Z,0.98
2022-10-17T22:53:42.728Z,0.80
2022-10-17T22:56:17.022Z,0.70
2022-10-17T22:58:44.240Z,0.50
2022-10-17T23:01:14.514Z,0.80
2022-10-17T23:03:41.958Z,0.52
2022-10-17T23:06:09.247Z,0.22
2022-10-17T23:08:36.633Z,0.40
2022-10-17T23:11:03.921Z,1.05
2022-10-17T23:13:31.138Z,0.90
2022-10-17T23:15:58.795Z,0.70
2022-10-17T23:18:26.888Z,0.60
2022-10-17T23:20:54.590Z,0.90
2022-10-17T23:23:22.204Z,1.50
2022-10-17T23:25:49.839Z,0.88
2022-10-17T23:28:17.048Z,0.80
2022-10-17T23:30:44.315Z,0.60
2022-10-17T23:33:12.859Z,0.50
2022-10-17T23:35:40.464Z,0.40
2022-10-17T23:38:07.720Z,0.80
2022-10-17T23:40:35.425Z,0.40
2022-10-17T23:43:02.930Z,0.40
2022-10-17T23:45:34.612Z,0.30
2022-10-17T23:48:04.258Z,0.40
2022-10-17T23:50:31.491Z,0.30
2022-10-17T23:52:58.682Z,0.40
2022-10-17T23:55:25.926Z,0.43
2022-10-17T23:57:53.207Z,0.35
